sensor_id;sensor_type;location;lat;lon;timestamp;P1;durP1;ratioP1;P2;durP2;ratioP2
36449;SDS011;22475;51.390;7.180;2023-04-01T00:01:25;3.78;;;0.50;;
36449;SDS011;22475;51.390;7.180;2023-04-01T00:03:52;1.50;;;0.45;;
36449;SDS011;22475;51.390;7.180;2023-04-01T00:06:19;1.05;;;0.60;;
36449;SDS011;22475;51.390;7.180;2023-04-01T00:08:47;2.08;;;0.50;;
36449;SDS011;22475;51.390;7.180;2023-04-01T00:11:14;0.85;;;0.40;;
36449;SDS011;22475;51.390;7.180;2023-04-01T00:13:42;3.35;;;0.38;;
36449;SDS011;22475;51.390;7.180;2023-04-01T00:16:09;1.63;;;0.63;;
36449;SDS011;22475;51.390;7.180;2023-04-01T00:18:35;1.48;;;0.63;;
36449;SDS011;22475;51.390;7.180;2023-04-01T00:21:02;1.38;;;0.30;;
36449;SDS011;22475;51.390;7.180;2023-04-01T00:23:29;1.10;;;0.30;;
36449;SDS011;22475;51.390;7.180;2023-04-01T00:25:58;3.90;;;0.30;;
36449;SDS011;22475;51.390;7.180;2023-04-01T00:28:26;0.25;;;0.17;;
36449;SDS011;22475;51.390;7.180;2023-04-01T00:30:53;0.90;;;0.38;;
36449;SDS011;22475;51.390;7.180;2023-04-01T00:33:20;1.27;;;0.25;;
36449;SDS011;22475;51.390;7.180;2023-04-01T00:35:46;2.33;;;0.32;;
36449;SDS011;22475;51.390;7.180;2023-04-01T00:38:13;0.52;;;0.35;;
36449;SDS011;22475;51.390;7.180;2023-04-01T00:40:42;1.23;;;0.38;;
36449;SDS011;22475;51.390;7.180;2023-04-01T00:43:12;0.57;;;0.13;;
36449;SDS011;22475;51.390;7.180;2023-04-01T00:45:43;4.38;;;0.43;;
36449;SDS011;22475;51.390;7.180;2023-04-01T00:48:12;0.70;;;0.15;;
36449;SDS011;22475;51.390;7.180;2023-04-01T00:50:43;3.08;;;0.43;;
36449;SDS011;22475;51.390;7.180;2023-04-01T00:53:13;3.13;;;0.30;;
36449;SDS011;22475;51.390;7.180;2023-04-01T00:55:42;0.77;;;0.35;;
36449;SDS011;22475;51.390;7.180;2023-04-01T00:58:17;0.57;;;0.17;;
36449;SDS011;22475;51.390;7.180;2023-04-01T01:00:47;1.90;;;0.40;;
36449;SDS011;22475;51.390;7.180;2023-04-01T01:03:15;0.45;;;0.20;;
36449;SDS011;22475;51.390;7.180;2023-04-01T01:05:47;0.52;;;0.20;;
36449;SDS011;22475;51.390;7.180;2023-04-01T01:08:38;2.15;;;0.43;;
36449;SDS011;22475;51.390;7.180;2023-04-01T01:11:19;1.55;;;0.47;;
36449;SDS011;22475;51.390;7.180;2023-04-01T01:13:55;0.82;;;0.40;;
36449;SDS011;22475;51.390;7.180;2023-04-01T01:16:28;0.80;;;0.20;;
36449;SDS011;22475;51.390;7.180;2023-04-01T01:19:02;1.50;;;0.20;;
36449;SDS011;22475;51.390;7.180;2023-04-01T01:24:39;0.63;;;0.38;;
36449;SDS011;22475;51.390;7.180;2023-04-01T01:27:17;0.20;;;0.20;;
36449;SDS011;22475;51.390;7.180;2023-04-01T01:33:09;0.52;;;0.20;;
36449;SDS011;22475;51.390;7.180;2023-04-01T01:36:05;1.33;;;0.35;;
36449;SDS011;22475;51.390;7.180;2023-04-01T01:38:34;1.70;;;0.30;;
36449;SDS011;22475;51.390;7.180;2023-04-01T01:41:02;2.10;;;0.30;;
36449;SDS011;22475;51.390;7.180;2023-04-01T01:43:31;1.80;;;0.10;;
36449;SDS011;22475;51.390;7.180;2023-04-01T01:46:03;0.17;;;0.10;;
36449;SDS011;22475;51.390;7.180;2023-04-01T01:48:34;0.40;;;0.17;;
36449;SDS011;22475;51.390;7.180;2023-04-01T01:51:01;1.67;;;0.22;;
36449;SDS011;22475;51.390;7.180;2023-04-01T01:53:34;0.43;;;0.20;;
36449;SDS011;22475;51.390;7.180;2023-04-01T01:56:01;1.45;;;0.20;;
36449;SDS011;22475;51.390;7.180;2023-04-01T01:58:29;0.63;;;0.20;;
36449;SDS011;22475;51.390;7.180;2023-04-01T02:01:00;1.75;;;0.50;;
36449;SDS011;22475;51.390;7.180;2023-04-01T02:03:30;0.20;;;0.10;;
36449;SDS011;22475;51.390;7.180;2023-04-01T02:06:01;0.30;;;0.13;;
36449;SDS011;22475;51.390;7.180;2023-04-01T02:08:31;1.73;;;0.10;;
36449;SDS011;22475;51.390;7.180;2023-04-01T02:11:04;0.20;;;0.20;;
36449;SDS011;22475;51.390;7.180;2023-04-01T02:13:34;0.73;;;0.20;;
36449;SDS011;22475;51.390;7.180;2023-04-01T02:16:05;0.20;;;0.20;;
36449;SDS011;22475;51.390;7.180;2023-04-01T02:18:37;0.82;;;0.20;;
36449;SDS011;22475;51.390;7.180;2023-04-01T02:21:05;0.65;;;0.13;;
36449;SDS011;22475;51.390;7.180;2023-04-01T02:23:32;0.30;;;0.30;;
36449;SDS011;22475;51.390;7.180;2023-04-01T02:26:03;1.10;;;0.20;;
36449;SDS011;22475;51.390;7.180;2023-04-01T02:28:32;0.30;;;0.20;;
36449;SDS011;22475;51.390;7.180;2023-04-01T02:31:00;0.30;;;0.30;;
36449;SDS011;22475;51.390;7.180;2023-04-01T02:33:28;0.40;;;0.22;;
36449;SDS011;22475;51.390;7.180;2023-04-01T02:35:55;0.38;;;0.20;;
36449;SDS011;22475;51.390;7.180;2023-04-01T02:38:23;0.10;;;0.03;;
36449;SDS011;22475;51.390;7.180;2023-04-01T02:40:50;0.80;;;0.20;;
36449;SDS011;22475;51.390;7.180;2023-04-01T02:43:24;0.60;;;0.20;;
36449;SDS011;22475;51.390;7.180;2023-04-01T02:45:51;0.13;;;0.10;;
36449;SDS011;22475;51.390;7.180;2023-04-01T02:48:18;0.10;;;0.05;;
36449;SDS011;22475;51.390;7.180;2023-04-01T02:50:45;0.20;;;0.17;;
36449;SDS011;22475;51.390;7.180;2023-04-01T02:53:11;0.45;;;0.28;;
36449;SDS011;22475;51.390;7.180;2023-04-01T02:55:38;0.45;;;0.10;;
36449;SDS011;22475;51.390;7.180;2023-04-01T02:58:05;0.43;;;0.30;;
36449;SDS011;22475;51.390;7.180;2023-04-01T03:00:33;1.38;;;0.10;;
36449;SDS011;22475;51.390;7.180;2023-04-01T03:03:00;0.40;;;0.30;;
36449;SDS011;22475;51.390;7.180;2023-04-01T03:05:27;0.45;;;0.10;;
36449;SDS011;22475;51.390;7.180;2023-04-01T03:07:54;0.30;;;0.03;;
36449;SDS011;22475;51.390;7.180;2023-04-01T03:10:21;0.50;;;0.30;;
36449;SDS011;22475;51.390;7.180;2023-04-01T03:12:48;1.23;;;0.10;;
36449;SDS011;22475;51.390;7.180;2023-04-01T03:15:15;0.00;;;0.00;;
36449;SDS011;22475;51.390;7.180;2023-04-01T03:17:43;0.28;;;0.13;;
36449;SDS011;22475;51.390;7.180;2023-04-01T03:20:11;0.22;;;0.10;;
36449;SDS011;22475;51.390;7.180;2023-04-01T03:22:39;1.45;;;0.30;;
36449;SDS011;22475;51.390;7.180;2023-04-01T03:25:06;0.10;;;0.10;;
36449;SDS011;22475;51.390;7.180;2023-04-01T03:27:34;0.30;;;0.20;;
36449;SDS011;22475;51.390;7.180;2023-04-01T03:30:01;0.08;;;0.08;;
36449;SDS011;22475;51.390;7.180;2023-04-01T03:32:28;0.88;;;0.20;;
36449;SDS011;22475;51.390;7.180;2023-04-01T03:34:56;0.10;;;0.08;;
36449;SDS011;22475;51.390;7.180;2023-04-01T03:37:23;3.35;;;0.28;;
36449;SDS011;22475;51.390;7.180;2023-04-01T03:39:50;1.98;;;0.40;;
36449;SDS011;22475;51.390;7.180;2023-04-01T03:42:18;0.28;;;0.28;;
36449;SDS011;22475;51.390;7.180;2023-04-01T03:44:44;0.17;;;0.10;;
36449;SDS011;22475;51.390;7.180;2023-04-01T03:47:11;0.47;;;0.32;;
36449;SDS011;22475;51.390;7.180;2023-04-01T03:49:38;0.25;;;0.10;;
36449;SDS011;22475;51.390;7.180;2023-04-01T03:52:08;0.20;;;0.00;;
36449;SDS011;22475;51.390;7.180;2023-04-01T03:54:35;0.52;;;0.40;;
36449;SDS011;22475;51.390;7.180;2023-04-01T03:57:03;0.90;;;0.22;;
36449;SDS011;22475;51.390;7.180;2023-04-01T03:59:30;0.85;;;0.20;;
36449;SDS011;22475;51.390;7.180;2023-04-01T04:01:56;1.98;;;0.20;;
36449;SDS011;22475;51.390;7.180;2023-04-01T04:04:23;0.68;;;0.20;;
36449;SDS011;22475;51.390;7.180;2023-04-01T04:06:51;0.10;;;0.10;;
36449;SDS011;22475;51.390;7.180;2023-04-01T04:09:19;0.35;;;0.10;;
36449;SDS011;22475;51.390;7.180;2023-04-01T04:11:45;0.52;;;0.10;;
36449;SDS011;22475;51.390;7.180;2023-04-01T04:14:12;0.80;;;0.10;;
36449;SDS011;22475;51.390;7.180;2023-04-01T04:16:39;0.08;;;0.08;;
36449;SDS011;22475;51.390;7.180;2023-04-01T04:19:05;0.17;;;0.10;;
36449;SDS011;22475;51.390;7.180;2023-04-01T04:21:32;0.22;;;0.17;;
36449;SDS011;22475;51.390;7.180;2023-04-01T04:23:59;0.50;;;0.30;;
36449;SDS011;22475;51.390;7.180;2023-04-01T04:26:28;0.30;;;0.20;;
36449;SDS011;22475;51.390;7.180;2023-04-01T04:28:55;0.10;;;0.10;;
36449;SDS011;22475;51.390;7.180;2023-04-01T04:31:22;0.25;;;0.10;;
36449;SDS011;22475;51.390;7.180;2023-04-01T04:33:50;0.30;;;0.30;;
36449;SDS011;22475;51.390;7.180;2023-04-01T04:36:17;0.10;;;0.00;;
36449;SDS011;22475;51.390;7.180;2023-04-01T04:38:44;1.33;;;0.10;;
36449;SDS011;22475;51.390;7.180;2023-04-01T04:41:11;0.17;;;0.10;;
36449;SDS011;22475;51.390;7.180;2023-04-01T04:43:40;0.25;;;0.10;;
36449;SDS011;22475;51.390;7.180;2023-04-01T04:46:07;0.20;;;0.13;;
36449;SDS011;22475;51.390;7.180;2023-04-01T04:48:34;0.20;;;0.20;;
36449;SDS011;22475;51.390;7.180;2023-04-01T04:51:01;0.13;;;0.10;;
36449;SDS011;22475;51.390;7.180;2023-04-01T04:53:29;1.83;;;0.10;;
36449;SDS011;22475;51.390;7.180;2023-04-01T04:55:55;0.10;;;0.10;;
36449;SDS011;22475;51.390;7.180;2023-04-01T04:58:22;0.10;;;0.10;;
36449;SDS011;22475;51.390;7.180;2023-04-01T05:00:50;0.40;;;0.10;;
36449;SDS011;22475;51.390;7.180;2023-04-01T05:03:17;0.20;;;0.20;;
36449;SDS011;22475;51.390;7.180;2023-04-01T05:05:51;0.00;;;0.00;;
36449;SDS011;22475;51.390;7.180;2023-04-01T05:08:19;0.10;;;0.10;;
36449;SDS011;22475;51.390;7.180;2023-04-01T05:10:46;0.70;;;0.10;;
36449;SDS011;22475;51.390;7.180;2023-04-01T05:13:13;0.10;;;0.10;;
36449;SDS011;22475;51.390;7.180;2023-04-01T05:15:39;0.00;;;0.00;;
36449;SDS011;22475;51.390;7.180;2023-04-01T05:18:07;0.28;;;0.28;;
36449;SDS011;22475;51.390;7.180;2023-04-01T05:20:34;0.08;;;0.08;;
36449;SDS011;22475;51.390;7.180;2023-04-01T05:23:01;0.25;;;0.20;;
36449;SDS011;22475;51.390;7.180;2023-04-01T05:25:28;0.00;;;0.00;;
36449;SDS011;22475;51.390;7.180;2023-04-01T05:27:54;0.13;;;0.05;;
36449;SDS011;22475;51.390;7.180;2023-04-01T05:30:21;0.10;;;0.05;;
36449;SDS011;22475;51.390;7.180;2023-04-01T05:32:48;0.30;;;0.10;;
36449;SDS011;22475;51.390;7.180;2023-04-01T05:35:16;0.20;;;0.10;;
36449;SDS011;22475;51.390;7.180;2023-04-01T05:37:43;0.40;;;0.20;;
36449;SDS011;22475;51.390;7.180;2023-04-01T05:40:10;0.20;;;0.20;;
36449;SDS011;22475;51.390;7.180;2023-04-01T05:42:37;0.25;;;0.10;;
36449;SDS011;22475;51.390;7.180;2023-04-01T05:45:04;0.28;;;0.13;;
36449;SDS011;22475;51.390;7.180;2023-04-01T05:47:31;0.00;;;0.00;;
36449;SDS011;22475;51.390;7.180;2023-04-01T05:49:58;0.00;;;0.00;;
36449;SDS011;22475;51.390;7.180;2023-04-01T05:52:26;1.08;;;0.20;;
36449;SDS011;22475;51.390;7.180;2023-04-01T05:54:53;0.10;;;0.10;;
36449;SDS011;22475;51.390;7.180;2023-04-01T05:57:20;0.28;;;0.10;;
36449;SDS011;22475;51.390;7.180;2023-04-01T05:59:46;0.20;;;0.10;;
36449;SDS011;22475;51.390;7.180;2023-04-01T06:02:13;0.10;;;0.10;;
36449;SDS011;22475;51.390;7.180;2023-04-01T06:04:43;0.10;;;0.00;;
36449;SDS011;22475;51.390;7.180;2023-04-01T06:07:11;0.08;;;0.08;;
36449;SDS011;22475;51.390;7.180;2023-04-01T06:09:40;0.03;;;0.03;;
36449;SDS011;22475;51.390;7.180;2023-04-01T06:12:25;0.10;;;0.10;;
36449;SDS011;22475;51.390;7.180;2023-04-01T06:15:14;0.00;;;0.00;;
36449;SDS011;22475;51.390;7.180;2023-04-01T06:17:57;0.20;;;0.10;;
36449;SDS011;22475;51.390;7.180;2023-04-01T06:20:45;0.10;;;0.10;;
36449;SDS011;22475;51.390;7.180;2023-04-01T06:23:23;0.00;;;0.00;;
36449;SDS011;22475;51.390;7.180;2023-04-01T06:26:29;0.10;;;0.00;;
36449;SDS011;22475;51.390;7.180;2023-04-01T06:29:20;0.03;;;0.03;;
36449;SDS011;22475;51.390;7.180;2023-04-01T06:32:01;0.05;;;0.05;;
36449;SDS011;22475;51.390;7.180;2023-04-01T06:34:49;0.10;;;0.10;;
36449;SDS011;22475;51.390;7.180;2023-04-01T06:37:35;0.20;;;0.10;;
36449;SDS011;22475;51.390;7.180;2023-04-01T06:40:18;0.25;;;0.20;;
36449;SDS011;22475;51.390;7.180;2023-04-01T06:43:05;0.52;;;0.00;;
36449;SDS011;22475;51.390;7.180;2023-04-01T06:45:40;0.10;;;0.00;;
36449;SDS011;22475;51.390;7.180;2023-04-01T06:48:17;0.10;;;0.08;;
36449;SDS011;22475;51.390;7.180;2023-04-01T06:50:57;0.22;;;0.22;;
36449;SDS011;22475;51.390;7.180;2023-04-01T06:53:33;0.25;;;0.10;;
36449;SDS011;22475;51.390;7.180;2023-04-01T06:56:06;0.15;;;0.10;;
36449;SDS011;22475;51.390;7.180;2023-04-01T06:58:39;0.10;;;0.10;;
36449;SDS011;22475;51.390;7.180;2023-04-01T07:01:10;0.10;;;0.10;;
36449;SDS011;22475;51.390;7.180;2023-04-01T07:03:43;1.83;;;0.20;;
36449;SDS011;22475;51.390;7.180;2023-04-01T07:06:16;0.65;;;0.10;;
36449;SDS011;22475;51.390;7.180;2023-04-01T07:08:50;2.05;;;0.20;;
36449;SDS011;22475;51.390;7.180;2023-04-01T07:11:21;2.55;;;0.10;;
36449;SDS011;22475;51.390;7.180;2023-04-01T07:13:53;0.47;;;0.05;;
36449;SDS011;22475;51.390;7.180;2023-04-01T07:16:25;0.10;;;0.10;;
36449;SDS011;22475;51.390;7.180;2023-04-01T07:18:58;0.00;;;0.00;;
36449;SDS011;22475;51.390;7.180;2023-04-01T07:21:29;0.32;;;0.32;;
36449;SDS011;22475;51.390;7.180;2023-04-01T07:24:01;0.20;;;0.20;;
36449;SDS011;22475;51.390;7.180;2023-04-01T07:26:31;0.70;;;0.10;;
36449;SDS011;22475;51.390;7.180;2023-04-01T07:29:00;0.30;;;0.20;;
36449;SDS011;22475;51.390;7.180;2023-04-01T07:31:30;0.35;;;0.10;;
36449;SDS011;22475;51.390;7.180;2023-04-01T07:34:11;0.05;;;0.05;;
36449;SDS011;22475;51.390;7.180;2023-04-01T07:36:45;1.02;;;0.13;;
36449;SDS011;22475;51.390;7.180;2023-04-01T07:39:20;0.13;;;0.13;;
36449;SDS011;22475;51.390;7.180;2023-04-01T07:41:57;0.30;;;0.03;;
36449;SDS011;22475;51.390;7.180;2023-04-01T07:44:33;0.57;;;0.10;;
36449;SDS011;22475;51.390;7.180;2023-04-01T07:47:12;0.13;;;0.13;;
36449;SDS011;22475;51.390;7.180;2023-04-01T07:49:53;0.13;;;0.10;;
36449;SDS011;22475;51.390;7.180;2023-04-01T07:52:30;0.57;;;0.20;;
36449;SDS011;22475;51.390;7.180;2023-04-01T07:55:07;0.10;;;0.10;;
36449;SDS011;22475;51.390;7.180;2023-04-01T07:57:42;0.03;;;0.00;;
36449;SDS011;22475;51.390;7.180;2023-04-01T08:00:17;0.55;;;0.30;;
36449;SDS011;22475;51.390;7.180;2023-04-01T08:05:46;0.73;;;0.20;;
36449;SDS011;22475;51.390;7.180;2023-04-01T08:08:19;0.08;;;0.08;;
36449;SDS011;22475;51.390;7.180;2023-04-01T08:10:56;0.00;;;0.00;;
36449;SDS011;22475;51.390;7.180;2023-04-01T08:13:27;0.30;;;0.30;;
36449;SDS011;22475;51.390;7.180;2023-04-01T08:16:06;0.47;;;0.10;;
36449;SDS011;22475;51.390;7.180;2023-04-01T08:18:41;0.13;;;0.13;;
36449;SDS011;22475;51.390;7.180;2023-04-01T08:21:14;0.30;;;0.30;;
36449;SDS011;22475;51.390;7.180;2023-04-01T08:23:47;0.00;;;0.00;;
36449;SDS011;22475;51.390;7.180;2023-04-01T08:26:18;1.80;;;0.20;;
36449;SDS011;22475;51.390;7.180;2023-04-01T08:28:56;0.40;;;0.10;;
36449;SDS011;22475;51.390;7.180;2023-04-01T08:31:30;0.20;;;0.20;;
36449;SDS011;22475;51.390;7.180;2023-04-01T08:34:03;0.13;;;0.10;;
36449;SDS011;22475;51.390;7.180;2023-04-01T08:36:35;1.45;;;0.25;;
36449;SDS011;22475;51.390;7.180;2023-04-01T08:39:05;2.47;;;0.30;;
36449;SDS011;22475;51.390;7.180;2023-04-01T08:41:47;0.10;;;0.10;;
36449;SDS011;22475;51.390;7.180;2023-04-01T08:47:48;0.60;;;0.40;;
36449;SDS011;22475;51.390;7.180;2023-04-01T08:50:46;1.45;;;0.52;;
36449;SDS011;22475;51.390;7.180;2023-04-01T08:56:29;0.38;;;0.00;;
36449;SDS011;22475;51.390;7.180;2023-04-01T08:59:07;0.22;;;0.13;;
36449;SDS011;22475;51.390;7.180;2023-04-01T09:01:58;1.27;;;0.10;;
36449;SDS011;22475;51.390;7.180;2023-04-01T09:04:57;0.30;;;0.20;;
36449;SDS011;22475;51.390;7.180;2023-04-01T09:07:39;0.35;;;0.10;;
36449;SDS011;22475;51.390;7.180;2023-04-01T09:10:18;0.00;;;0.00;;
36449;SDS011;22475;51.390;7.180;2023-04-01T09:12:59;0.20;;;0.20;;
36449;SDS011;22475;51.390;7.180;2023-04-01T09:15:48;0.00;;;0.00;;
36449;SDS011;22475;51.390;7.180;2023-04-01T09:21:52;0.13;;;0.13;;
36449;SDS011;22475;51.390;7.180;2023-04-01T09:24:33;0.10;;;0.10;;
36449;SDS011;22475;51.390;7.180;2023-04-01T09:27:10;0.40;;;0.22;;
36449;SDS011;22475;51.390;7.180;2023-04-01T09:29:52;0.22;;;0.22;;
36449;SDS011;22475;51.390;7.180;2023-04-01T09:32:42;0.10;;;0.10;;
36449;SDS011;22475;51.390;7.180;2023-04-01T09:35:22;0.85;;;0.40;;
36449;SDS011;22475;51.390;7.180;2023-04-01T09:37:53;1.30;;;0.55;;
36449;SDS011;22475;51.390;7.180;2023-04-01T09:40:34;0.50;;;0.50;;
36449;SDS011;22475;51.390;7.180;2023-04-01T09:43:28;0.20;;;0.20;;
36449;SDS011;22475;51.390;7.180;2023-04-01T09:46:15;0.32;;;0.32;;
36449;SDS011;22475;51.390;7.180;2023-04-01T09:48:57;0.60;;;0.50;;
36449;SDS011;22475;51.390;7.180;2023-04-01T09:51:46;1.45;;;0.60;;
36449;SDS011;22475;51.390;7.180;2023-04-01T09:54:32;0.68;;;0.65;;
36449;SDS011;22475;51.390;7.180;2023-04-01T09:57:19;1.45;;;0.60;;
36449;SDS011;22475;51.390;7.180;2023-04-01T10:00:06;0.90;;;0.90;;
36449;SDS011;22475;51.390;7.180;2023-04-01T10:02:48;2.45;;;0.50;;
36449;SDS011;22475;51.390;7.180;2023-04-01T10:06:10;2.42;;;1.05;;
36449;SDS011;22475;51.390;7.180;2023-04-01T10:09:11;2.67;;;0.98;;
36449;SDS011;22475;51.390;7.180;2023-04-01T10:24:22;0.30;;;0.30;;
36449;SDS011;22475;51.390;7.180;2023-04-01T10:27:06;0.75;;;0.75;;
36449;SDS011;22475;51.390;7.180;2023-04-01T10:29:52;0.93;;;0.93;;
36449;SDS011;22475;51.390;7.180;2023-04-01T10:35:52;0.30;;;0.30;;
36449;SDS011;22475;51.390;7.180;2023-04-01T10:41:58;0.77;;;0.70;;
36449;SDS011;22475;51.390;7.180;2023-04-01T10:48:01;0.80;;;0.68;;
36449;SDS011;22475;51.390;7.180;2023-04-01T10:53:52;0.35;;;0.35;;
36449;SDS011;22475;51.390;7.180;2023-04-01T10:56:42;1.85;;;0.50;;
36449;SDS011;22475;51.390;7.180;2023-04-01T10:59:37;1.80;;;0.75;;
36449;SDS011;22475;51.390;7.180;2023-04-01T11:08:45;1.17;;;0.57;;
36449;SDS011;22475;51.390;7.180;2023-04-01T11:11:51;0.28;;;0.28;;
36449;SDS011;22475;51.390;7.180;2023-04-01T11:14:54;0.57;;;0.40;;
36449;SDS011;22475;51.390;7.180;2023-04-01T11:21:02;1.80;;;0.65;;
36449;SDS011;22475;51.390;7.180;2023-04-01T11:23:53;0.52;;;0.52;;
36449;SDS011;22475;51.390;7.180;2023-04-01T11:26:35;0.50;;;0.50;;
36449;SDS011;22475;51.390;7.180;2023-04-01T11:29:24;0.13;;;0.13;;
36449;SDS011;22475;51.390;7.180;2023-04-01T11:32:14;1.40;;;0.40;;
36449;SDS011;22475;51.390;7.180;2023-04-01T11:35:08;0.55;;;0.50;;
36449;SDS011;22475;51.390;7.180;2023-04-01T11:37:50;0.60;;;0.60;;
36449;SDS011;22475;51.390;7.180;2023-04-01T11:40:24;0.70;;;0.70;;
36449;SDS011;22475;51.390;7.180;2023-04-01T11:43:01;1.08;;;0.50;;
36449;SDS011;22475;51.390;7.180;2023-04-01T11:45:39;0.40;;;0.40;;
36449;SDS011;22475;51.390;7.180;2023-04-01T11:48:15;0.32;;;0.30;;
36449;SDS011;22475;51.390;7.180;2023-04-01T11:51:03;0.32;;;0.32;;
36449;SDS011;22475;51.390;7.180;2023-04-01T11:53:41;0.65;;;0.60;;
36449;SDS011;22475;51.390;7.180;2023-04-01T11:56:17;0.68;;;0.68;;
36449;SDS011;22475;51.390;7.180;2023-04-01T12:01:58;1.30;;;0.80;;
36449;SDS011;22475;51.390;7.180;2023-04-01T12:04:50;0.43;;;0.40;;
36449;SDS011;22475;51.390;7.180;2023-04-01T12:07:27;0.50;;;0.50;;
36449;SDS011;22475;51.390;7.180;2023-04-01T12:10:12;0.55;;;0.52;;
36449;SDS011;22475;51.390;7.180;2023-04-01T12:12:46;3.92;;;0.52;;
36449;SDS011;22475;51.390;7.180;2023-04-01T12:15:23;1.95;;;0.35;;
36449;SDS011;22475;51.390;7.180;2023-04-01T12:17:57;0.30;;;0.30;;
36449;SDS011;22475;51.390;7.180;2023-04-01T12:20:38;0.20;;;0.20;;
36449;SDS011;22475;51.390;7.180;2023-04-01T12:23:16;1.95;;;0.70;;
36449;SDS011;22475;51.390;7.180;2023-04-01T12:29:14;0.65;;;0.65;;
36449;SDS011;22475;51.390;7.180;2023-04-01T12:31:56;0.35;;;0.35;;
36449;SDS011;22475;51.390;7.180;2023-04-01T12:34:40;0.50;;;0.50;;
36449;SDS011;22475;51.390;7.180;2023-04-01T12:37:17;0.55;;;0.55;;
36449;SDS011;22475;51.390;7.180;2023-04-01T12:40:02;0.88;;;0.45;;
36449;SDS011;22475;51.390;7.180;2023-04-01T12:42:46;0.30;;;0.30;;
36449;SDS011;22475;51.390;7.180;2023-04-01T12:45:31;0.32;;;0.32;;
36449;SDS011;22475;51.390;7.180;2023-04-01T12:51:01;0.52;;;0.45;;
36449;SDS011;22475;51.390;7.180;2023-04-01T12:54:02;0.40;;;0.40;;
36449;SDS011;22475;51.390;7.180;2023-04-01T12:57:01;0.80;;;0.65;;
36449;SDS011;22475;51.390;7.180;2023-04-01T12:59:42;0.85;;;0.85;;
36449;SDS011;22475;51.390;7.180;2023-04-01T13:02:23;0.45;;;0.45;;
36449;SDS011;22475;51.390;7.180;2023-04-01T13:07:57;2.38;;;0.43;;
36449;SDS011;22475;51.390;7.180;2023-04-01T13:10:35;0.57;;;0.57;;
36449;SDS011;22475;51.390;7.180;2023-04-01T13:13:22;0.55;;;0.55;;
36449;SDS011;22475;51.390;7.180;2023-04-01T13:16:01;4.50;;;0.75;;
36449;SDS011;22475;51.390;7.180;2023-04-01T13:18:39;1.08;;;1.08;;
36449;SDS011;22475;51.390;7.180;2023-04-01T13:21:16;0.82;;;0.60;;
36449;SDS011;22475;51.390;7.180;2023-04-01T13:23:53;2.08;;;0.65;;
36449;SDS011;22475;51.390;7.180;2023-04-01T13:26:33;0.73;;;0.73;;
36449;SDS011;22475;51.390;7.180;2023-04-01T13:29:04;0.60;;;0.60;;
36449;SDS011;22475;51.390;7.180;2023-04-01T13:31:49;0.80;;;0.80;;
36449;SDS011;22475;51.390;7.180;2023-04-01T13:34:38;1.63;;;1.40;;
36449;SDS011;22475;51.390;7.180;2023-04-01T13:37:17;5.30;;;0.80;;
36449;SDS011;22475;51.390;7.180;2023-04-01T13:39:59;1.10;;;0.75;;
36449;SDS011;22475;51.390;7.180;2023-04-01T13:42:45;0.60;;;0.60;;
36449;SDS011;22475;51.390;7.180;2023-04-01T13:45:16;1.17;;;1.08;;
36449;SDS011;22475;51.390;7.180;2023-04-01T13:47:57;1.45;;;1.27;;
36449;SDS011;22475;51.390;7.180;2023-04-01T13:53:53;1.33;;;0.93;;
36449;SDS011;22475;51.390;7.180;2023-04-01T13:56:41;0.60;;;0.60;;
36449;SDS011;22475;51.390;7.180;2023-04-01T14:02:32;0.55;;;0.55;;
36449;SDS011;22475;51.390;7.180;2023-04-01T14:08:07;0.68;;;0.68;;
36449;SDS011;22475;51.390;7.180;2023-04-01T14:10:41;1.08;;;0.88;;
36449;SDS011;22475;51.390;7.180;2023-04-01T14:13:15;2.13;;;1.10;;
36449;SDS011;22475;51.390;7.180;2023-04-01T14:18:52;1.33;;;1.23;;
36449;SDS011;22475;51.390;7.180;2023-04-01T14:21:32;0.52;;;0.52;;
36449;SDS011;22475;51.390;7.180;2023-04-01T14:24:14;0.90;;;0.90;;
36449;SDS011;22475;51.390;7.180;2023-04-01T14:29:58;1.02;;;1.02;;
36449;SDS011;22475;51.390;7.180;2023-04-01T14:32:41;0.85;;;0.85;;
36449;SDS011;22475;51.390;7.180;2023-04-01T14:35:26;1.65;;;0.68;;
36449;SDS011;22475;51.390;7.180;2023-04-01T14:38:15;0.82;;;0.82;;
36449;SDS011;22475;51.390;7.180;2023-04-01T14:41:03;0.75;;;0.73;;
36449;SDS011;22475;51.390;7.180;2023-04-01T14:43:45;0.68;;;0.68;;
36449;SDS011;22475;51.390;7.180;2023-04-01T14:46:30;0.80;;;0.75;;
36449;SDS011;22475;51.390;7.180;2023-04-01T14:49:15;0.68;;;0.68;;
36449;SDS011;22475;51.390;7.180;2023-04-01T14:51:46;0.57;;;0.40;;
36449;SDS011;22475;51.390;7.180;2023-04-01T14:54:15;2.42;;;0.80;;
36449;SDS011;22475;51.390;7.180;2023-04-01T14:56:48;3.42;;;0.77;;
36449;SDS011;22475;51.390;7.180;2023-04-01T14:59:17;0.68;;;0.50;;
36449;SDS011;22475;51.390;7.180;2023-04-01T15:01:55;0.60;;;0.60;;
36449;SDS011;22475;51.390;7.180;2023-04-01T15:07:29;1.00;;;1.00;;
36449;SDS011;22475;51.390;7.180;2023-04-01T15:10:16;0.50;;;0.50;;
36449;SDS011;22475;51.390;7.180;2023-04-01T15:13:05;0.55;;;0.55;;
36449;SDS011;22475;51.390;7.180;2023-04-01T15:15:42;1.02;;;1.02;;
36449;SDS011;22475;51.390;7.180;2023-04-01T15:18:17;1.65;;;1.20;;
36449;SDS011;22475;51.390;7.180;2023-04-01T15:23:46;0.88;;;0.88;;
36449;SDS011;22475;51.390;7.180;2023-04-01T15:26:34;0.63;;;0.60;;
36449;SDS011;22475;51.390;7.180;2023-04-01T15:32:08;0.50;;;0.50;;
36449;SDS011;22475;51.390;7.180;2023-04-01T15:34:44;1.30;;;1.20;;
36449;SDS011;22475;51.390;7.180;2023-04-01T15:37:18;1.13;;;1.08;;
36449;SDS011;22475;51.390;7.180;2023-04-01T15:39:54;1.27;;;0.98;;
36449;SDS011;22475;51.390;7.180;2023-04-01T15:42:32;1.73;;;1.63;;
36449;SDS011;22475;51.390;7.180;2023-04-01T15:45:14;1.30;;;1.20;;
36449;SDS011;22475;51.390;7.180;2023-04-01T15:47:58;0.73;;;0.73;;
36449;SDS011;22475;51.390;7.180;2023-04-01T15:56:30;0.73;;;0.50;;
36449;SDS011;22475;51.390;7.180;2023-04-01T15:59:13;1.05;;;1.00;;
36449;SDS011;22475;51.390;7.180;2023-04-01T16:01:50;2.42;;;1.15;;
36449;SDS011;22475;51.390;7.180;2023-04-01T16:04:32;0.82;;;0.82;;
36449;SDS011;22475;51.390;7.180;2023-04-01T16:07:15;1.15;;;0.88;;
36449;SDS011;22475;51.390;7.180;2023-04-01T16:10:13;0.95;;;0.95;;
36449;SDS011;22475;51.390;7.180;2023-04-01T16:12:50;1.63;;;0.93;;
36449;SDS011;22475;51.390;7.180;2023-04-01T16:15:29;0.80;;;0.80;;
36449;SDS011;22475;51.390;7.180;2023-04-01T16:18:09;2.80;;;0.50;;
36449;SDS011;22475;51.390;7.180;2023-04-01T16:20:53;1.10;;;1.00;;
36449;SDS011;22475;51.390;7.180;2023-04-01T16:23:24;0.95;;;0.82;;
36449;SDS011;22475;51.390;7.180;2023-04-01T16:26:03;0.75;;;0.75;;
36449;SDS011;22475;51.390;7.180;2023-04-01T16:28:34;0.50;;;0.50;;
36449;SDS011;22475;51.390;7.180;2023-04-01T16:31:06;0.50;;;0.50;;
36449;SDS011;22475;51.390;7.180;2023-04-01T16:33:40;0.60;;;0.60;;
36449;SDS011;22475;51.390;7.180;2023-04-01T16:36:17;0.68;;;0.68;;
36449;SDS011;22475;51.390;7.180;2023-04-01T16:38:52;0.80;;;0.77;;
36449;SDS011;22475;51.390;7.180;2023-04-01T16:41:38;0.50;;;0.50;;
36449;SDS011;22475;51.390;7.180;2023-04-01T16:44:14;0.50;;;0.50;;
36449;SDS011;22475;51.390;7.180;2023-04-01T16:46:45;0.52;;;0.52;;
36449;SDS011;22475;51.390;7.180;2023-04-01T16:49:18;0.70;;;0.70;;
36449;SDS011;22475;51.390;7.180;2023-04-01T16:51:52;0.82;;;0.82;;
36449;SDS011;22475;51.390;7.180;2023-04-01T16:54:26;0.50;;;0.50;;
36449;SDS011;22475;51.390;7.180;2023-04-01T16:57:03;0.47;;;0.40;;
36449;SDS011;22475;51.390;7.180;2023-04-01T16:59:44;0.40;;;0.40;;
36449;SDS011;22475;51.390;7.180;2023-04-01T17:02:13;0.70;;;0.70;;
36449;SDS011;22475;51.390;7.180;2023-04-01T17:04:44;1.08;;;0.70;;
36449;SDS011;22475;51.390;7.180;2023-04-01T17:07:20;1.00;;;1.00;;
36449;SDS011;22475;51.390;7.180;2023-04-01T17:10:02;0.43;;;0.43;;
36449;SDS011;22475;51.390;7.180;2023-04-01T17:12:42;1.10;;;0.80;;
36449;SDS011;22475;51.390;7.180;2023-04-01T17:15:16;0.75;;;0.75;;